createdAt,value
2016-08-06T00:00:08.589Z,0
2016-08-06T00:01:08.572Z,0
2016-08-06T00:02:09.288Z,0
2016-08-06T00:03:10.017Z,0
2016-08-06T00:04:10.017Z,0
2016-08-06T00:05:09.305Z,0
2016-08-06T00:06:10.017Z,0
2016-08-06T00:07:09.309Z,0
2016-08-06T00:08:09.289Z,0
2016-08-06T00:09:08.566Z,0
2016-08-06T00:10:09.300Z,0
2016-08-06T00:11:08.573Z,0
2016-08-06T00:12:08.577Z,0
2016-08-06T00:13:10.018Z,0
2016-08-06T00:14:09.301Z,0
2016-08-06T00:15:07.977Z,0
2016-08-06T00:16:07.849Z,0
2016-08-06T00:17:09.294Z,0
2016-08-06T00:18:08.574Z,0
2016-08-06T00:19:10.018Z,0
2016-08-06T00:20:10.021Z,0
2016-08-06T00:21:08.573Z,0
2016-08-06T00:22:08.569Z,0
2016-08-06T00:23:08.577Z,0
2016-08-06T00:24:10.018Z,0
2016-08-06T00:25:08.574Z,0
2016-08-06T00:26:10.018Z,0
2016-08-06T00:27:10.018Z,0
2016-08-06T00:28:08.578Z,0
2016-08-06T00:29:09.282Z,0
2016-08-06T00:31:08.573Z,0
2016-08-06T00:32:07.849Z,0
2016-08-06T00:33:09.298Z,0
2016-08-06T00:34:10.022Z,0
2016-08-06T00:35:10.013Z,0
2016-08-06T00:36:08.565Z,0
2016-08-06T00:37:10.018Z,0
2016-08-06T00:38:09.293Z,0
2016-08-06T00:39:10.020Z,0
2016-08-06T00:40:08.570Z,0
2016-08-06T00:41:08.582Z,0
2016-08-06T00:42:08.574Z,0
2016-08-06T00:43:10.025Z,0
2016-08-06T00:44:09.294Z,0
2016-08-06T00:45:09.281Z,0
2016-08-06T00:46:09.294Z,0
2016-08-06T00:47:09.494Z,0
2016-08-06T00:48:08.575Z,0
2016-08-06T00:49:09.294Z,0
2016-08-06T00:50:10.009Z,0
2016-08-06T00:51:10.005Z,0
2016-08-06T00:52:08.579Z,0
2016-08-06T00:53:09.306Z,0
2016-08-06T00:54:08.570Z,0
2016-08-06T00:55:09.326Z,0
2016-08-06T00:56:10.022Z,0
2016-08-06T00:57:07.862Z,0
2016-08-06T00:58:09.287Z,0
2016-08-06T00:59:09.286Z,0
2016-08-06T01:00:09.311Z,0
2016-08-06T01:01:09.279Z,0
2016-08-06T01:02:10.023Z,0
2016-08-06T01:03:09.287Z,0
2016-08-06T01:04:08.622Z,0
2016-08-06T01:05:09.291Z,0
2016-08-06T01:06:10.015Z,0
2016-08-06T01:07:10.007Z,0
2016-08-06T01:08:09.283Z,0
2016-08-06T01:09:09.283Z,0
2016-08-06T01:10:08.575Z,0
2016-08-06T01:11:08.570Z,0
2016-08-06T01:12:09.284Z,0
2016-08-06T01:13:08.576Z,0
2016-08-06T01:14:10.015Z,0
2016-08-06T01:15:10.016Z,0
2016-08-06T01:16:09.543Z,0
2016-08-06T01:17:09.295Z,0
2016-08-06T01:18:08.575Z,0
2016-08-06T01:19:09.283Z,0
2016-08-06T01:20:10.007Z,0
2016-08-06T01:21:10.012Z,0
2016-08-06T01:22:08.576Z,0
2016-08-06T01:23:08.575Z,0
2016-08-06T01:24:10.014Z,0
2016-08-06T01:25:09.279Z,0
2016-08-06T01:26:09.291Z,0
2016-08-06T01:27:10.021Z,0
2016-08-06T01:28:08.586Z,0
2016-08-06T01:29:08.575Z,0
2016-08-06T01:30:09.299Z,0
2016-08-06T01:31:09.303Z,0
2016-08-06T01:32:10.007Z,0
2016-08-06T01:33:10.011Z,0
2016-08-06T01:34:08.573Z,0
2016-08-06T01:35:08.572Z,0
2016-08-06T01:36:10.016Z,0
2016-08-06T01:37:09.284Z,0
2016-08-06T01:38:10.008Z,0
2016-08-06T01:39:10.000Z,0
2016-08-06T01:40:09.996Z,0
2016-08-06T01:41:08.567Z,0
2016-08-06T01:42:10.017Z,0
2016-08-06T01:43:09.309Z,0
2016-08-06T01:44:10.007Z,0
2016-08-06T01:45:09.284Z,0
2016-08-06T01:46:09.284Z,0
2016-08-06T01:47:09.280Z,0
2016-08-06T01:48:10.014Z,0
2016-08-06T01:49:10.012Z,0
2016-08-06T01:50:09.292Z,0
2016-08-06T01:51:10.004Z,0
2016-08-06T01:52:08.568Z,0
2016-08-06T01:53:09.280Z,0
2016-08-06T01:54:09.284Z,0
2016-08-06T01:55:09.291Z,0
2016-08-06T01:56:09.286Z,0
2016-08-06T01:57:09.288Z,0
2016-08-06T01:58:09.296Z,0
2016-08-06T01:59:09.996Z,0
2016-08-06T02:00:09.284Z,0
2016-08-06T02:01:09.293Z,0
2016-08-06T02:02:08.581Z,0
2016-08-06T02:03:10.008Z,0
2016-08-06T02:04:09.309Z,0
2016-08-06T02:05:10.002Z,0
2016-08-06T02:06:07.845Z,0
2016-08-06T02:07:09.296Z,0
2016-08-06T02:08:08.914Z,0
2016-08-06T02:09:10.009Z,0
2016-08-06T02:10:10.022Z,0
2016-08-06T02:11:10.009Z,0
2016-08-06T02:12:09.293Z,0
2016-08-06T02:13:09.280Z,0
2016-08-06T02:14:09.285Z,0
2016-08-06T02:15:09.286Z,0
2016-08-06T02:16:09.997Z,0
2016-08-06T02:17:10.009Z,0
2016-08-06T02:18:08.573Z,0
2016-08-06T02:19:10.004Z,0
2016-08-06T02:20:10.008Z,0
2016-08-06T02:21:09.277Z,0
2016-08-06T02:22:07.848Z,0
2016-08-06T02:23:09.285Z,0
2016-08-06T02:24:09.281Z,0
2016-08-06T02:25:10.009Z,0
2016-08-06T02:26:09.286Z,0
2016-08-06T02:27:08.562Z,0
2016-08-06T02:28:09.996Z,0
2016-08-06T02:29:09.997Z,0
2016-08-06T02:30:09.277Z,0
2016-08-06T02:31:10.005Z,0
2016-08-06T02:32:09.293Z,0
2016-08-06T02:33:10.002Z,0
2016-08-06T02:34:09.286Z,0
2016-08-06T02:35:09.285Z,0
2016-08-06T02:36:08.561Z,0
2016-08-06T02:37:09.277Z,0
2016-08-06T02:38:09.993Z,0
2016-08-06T02:39:09.285Z,0
2016-08-06T02:40:08.558Z,0
2016-08-06T02:41:10.010Z,0
2016-08-06T02:42:09.278Z,0
2016-08-06T02:43:10.002Z,0
2016-08-06T02:44:09.309Z,0
2016-08-06T02:45:10.001Z,0
2016-08-06T02:46:07.841Z,0
2016-08-06T02:47:10.005Z,0
2016-08-06T02:48:09.998Z,0
2016-08-06T02:49:09.282Z,0
2016-08-06T02:50:09.278Z,0
2016-08-06T02:51:10.014Z,0
2016-08-06T02:52:10.005Z,0
2016-08-06T02:53:08.558Z,0
2016-08-06T02:54:09.278Z,0
2016-08-06T02:55:09.290Z,0
2016-08-06T02:56:08.562Z,0
2016-08-06T02:57:09.281Z,0
2016-08-06T02:58:10.003Z,0
2016-08-06T02:59:10.002Z,0
2016-08-06T03:00:10.002Z,0
2016-08-06T03:01:09.277Z,0
2016-08-06T03:02:09.991Z,0
2016-08-06T03:03:08.570Z,0
2016-08-06T03:04:08.610Z,0
2016-08-06T03:05:08.550Z,0
2016-08-06T03:06:08.563Z,0
2016-08-06T03:07:08.555Z,0
2016-08-06T03:08:09.275Z,0
2016-08-06T03:09:08.558Z,0
2016-08-06T03:10:09.291Z,0
2016-08-06T03:11:08.550Z,0
2016-08-06T03:12:09.278Z,0
2016-08-06T03:13:08.558Z,0
2016-08-06T03:14:09.278Z,0
2016-08-06T03:15:09.271Z,0
2016-08-06T03:16:08.559Z,0
2016-08-06T03:17:09.995Z,0
2016-08-06T03:18:10.002Z,0
2016-08-06T03:19:09.987Z,0
2016-08-06T03:20:09.999Z,0
2016-08-06T03:21:09.988Z,0
2016-08-06T03:22:09.279Z,0
2016-08-06T03:23:09.991Z,16
2016-08-06T03:24:09.988Z,16
2016-08-06T03:25:09.275Z,0
2016-08-06T03:26:08.551Z,0
2016-08-06T03:27:09.267Z,0
2016-08-06T03:28:09.279Z,0
2016-08-06T03:29:09.271Z,0
2016-08-06T03:30:08.547Z,0
2016-08-06T03:31:09.275Z,0
2016-08-06T03:32:07.831Z,0
2016-08-06T03:33:09.279Z,0
2016-08-06T03:34:08.568Z,0
2016-08-06T03:35:09.276Z,0
2016-08-06T03:36:09.993Z,0
2016-08-06T03:37:09.992Z,0
2016-08-06T03:38:09.980Z,0
2016-08-06T03:39:09.987Z,0
2016-08-06T03:40:09.268Z,4
2016-08-06T03:41:09.997Z,4
2016-08-06T03:42:08.547Z,4
2016-08-06T03:43:09.277Z,4
2016-08-06T03:44:10.001Z,4
2016-08-06T03:45:09.263Z,4
2016-08-06T03:46:09.995Z,8
2016-08-06T03:47:09.268Z,8
2016-08-06T03:48:09.985Z,12
2016-08-06T03:49:09.977Z,32
2016-08-06T03:50:09.992Z,36
2016-08-06T03:51:09.273Z,20
2016-08-06T03:52:09.272Z,28
2016-08-06T03:53:09.996Z,28
2016-08-06T03:54:09.260Z,32
2016-08-06T03:55:09.279Z,40
2016-08-06T03:56:09.261Z,40
2016-08-06T03:57:08.545Z,40
2016-08-06T03:58:09.976Z,40
2016-08-06T03:59:09.992Z,44
2016-08-06T04:00:09.980Z,44
2016-08-06T04:01:09.256Z,52
2016-08-06T04:02:09.256Z,56
2016-08-06T04:03:09.257Z,64
2016-08-06T04:04:09.976Z,72
2016-08-06T04:05:09.991Z,76
2016-08-06T04:06:09.981Z,84
2016-08-06T04:07:09.985Z,88
2016-08-06T04:08:09.981Z,88
2016-08-06T04:09:08.532Z,92
2016-08-06T04:10:09.252Z,92
2016-08-06T04:11:09.982Z,96
2016-08-06T04:12:09.256Z,100
2016-08-06T04:13:09.249Z,108
2016-08-06T04:14:09.256Z,120
2016-08-06T04:15:09.264Z,128
2016-08-06T04:16:07.900Z,140
2016-08-06T04:17:08.544Z,152
2016-08-06T04:18:08.529Z,168
2016-08-06T04:19:09.244Z,188
2016-08-06T04:20:09.977Z,204
2016-08-06T04:21:09.970Z,232
2016-08-06T04:22:09.253Z,272
2016-08-06T04:23:09.970Z,316
2016-08-06T04:24:09.980Z,364
2016-08-06T04:25:09.249Z,404
2016-08-06T04:26:09.253Z,456
2016-08-06T04:27:09.972Z,508
2016-08-06T04:28:09.253Z,568
2016-08-06T04:29:09.253Z,628
2016-08-06T04:30:09.982Z,684
2016-08-06T04:32:08.526Z,756
2016-08-06T04:33:09.969Z,804
2016-08-06T04:34:09.253Z,848
2016-08-06T04:35:08.525Z,880
2016-08-06T04:36:08.530Z,936
2016-08-06T04:37:07.805Z,1000
2016-08-06T04:38:08.534Z,1036
2016-08-06T04:39:09.254Z,1144
2016-08-06T04:40:09.965Z,1300
2016-08-06T04:41:09.258Z,1400
2016-08-06T04:42:09.241Z,1444
2016-08-06T04:43:08.534Z,1420
2016-08-06T04:44:09.253Z,1352
2016-08-06T04:45:09.250Z,1180
2016-08-06T04:46:09.250Z,952
2016-08-06T04:47:09.242Z,804
2016-08-06T04:48:09.962Z,936
2016-08-06T04:49:09.250Z,1012
2016-08-06T04:50:09.966Z,1124
2016-08-06T04:51:09.250Z,1140
2016-08-06T04:52:09.238Z,1256
2016-08-06T04:53:09.981Z,1316
2016-08-06T04:54:09.959Z,1472
2016-08-06T04:55:09.252Z,1644
2016-08-06T04:56:09.242Z,1816
2016-08-06T04:57:09.966Z,1956
2016-08-06T04:58:09.234Z,1988
2016-08-06T04:59:09.242Z,2016
2016-08-06T05:00:08.523Z,2008
2016-08-06T05:01:09.238Z,2016
2016-08-06T05:02:08.518Z,1976
2016-08-06T05:03:09.263Z,1908
2016-08-06T05:04:10.014Z,1888
2016-08-06T05:05:09.966Z,1884
2016-08-06T05:06:09.959Z,1892
2016-08-06T05:07:09.243Z,1896
2016-08-06T05:08:08.519Z,1932
2016-08-06T05:09:09.246Z,2032
2016-08-06T05:10:09.955Z,2192
2016-08-06T05:11:09.242Z,2380
2016-08-06T05:12:09.243Z,2536
2016-08-06T05:13:08.627Z,2708
2016-08-06T05:14:09.247Z,2812
2016-08-06T05:15:09.970Z,2780
2016-08-06T05:16:09.963Z,2660
2016-08-06T05:17:09.239Z,2652
2016-08-06T05:18:09.243Z,2744
2016-08-06T05:19:09.254Z,2880
2016-08-06T05:20:09.959Z,2996
2016-08-06T05:21:08.523Z,3108
2016-08-06T05:22:08.523Z,3268
2016-08-06T05:23:09.963Z,3456
2016-08-06T05:24:09.251Z,3708
2016-08-06T05:25:08.519Z,4028
2016-08-06T05:26:09.243Z,4348
2016-08-06T05:27:09.963Z,4664
2016-08-06T05:28:09.243Z,4992
2016-08-06T05:29:09.959Z,5404
2016-08-06T05:30:09.248Z,6440
2016-08-06T05:31:09.251Z,6376
2016-08-06T05:32:09.963Z,6284
2016-08-06T05:33:09.251Z,6404
2016-08-06T05:34:09.964Z,6536
2016-08-06T05:35:09.242Z,6052
2016-08-06T05:36:09.247Z,5108
2016-08-06T05:37:09.972Z,4688
2016-08-06T05:38:09.248Z,4396
2016-08-06T05:39:09.244Z,4220
2016-08-06T05:40:09.239Z,4604
2016-08-06T05:41:09.247Z,5288
2016-08-06T05:42:09.271Z,4636
2016-08-06T05:43:09.248Z,4536
2016-08-06T05:44:09.244Z,4616
2016-08-06T05:45:09.963Z,4812
2016-08-06T05:46:09.248Z,5072
2016-08-06T05:47:09.972Z,5472
2016-08-06T05:48:09.252Z,6140
2016-08-06T05:49:09.980Z,7036
2016-08-06T05:50:09.264Z,7684
2016-08-06T05:51:08.532Z,8184
2016-08-06T05:52:09.976Z,9944
2016-08-06T05:53:08.545Z,10556
2016-08-06T05:54:09.980Z,13316
2016-08-06T05:55:09.261Z,12756
2016-08-06T05:56:09.993Z,15840
2016-08-06T05:57:09.260Z,13224
2016-08-06T05:58:09.256Z,12220
2016-08-06T05:59:09.257Z,12516
2016-08-06T06:00:09.989Z,12976
2016-08-06T06:01:08.545Z,13232
2016-08-06T06:02:09.988Z,11336
2016-08-06T06:03:08.552Z,10768
2016-08-06T06:04:08.544Z,11012
2016-08-06T06:05:09.269Z,10920
2016-08-06T06:06:08.565Z,9628
2016-08-06T06:07:09.281Z,9176
2016-08-06T06:08:09.280Z,9268
2016-08-06T06:09:08.557Z,8604
2016-08-06T06:10:10.005Z,7868
2016-08-06T06:11:09.280Z,7256
2016-08-06T06:12:10.008Z,6964
2016-08-06T06:13:09.284Z,6920
2016-08-06T06:14:08.569Z,7260
2016-08-06T06:15:09.294Z,7608
2016-08-06T06:16:10.020Z,7424
2016-08-06T06:17:08.572Z,6824
2016-08-06T06:18:10.017Z,5828
2016-08-06T06:19:10.017Z,5732
2016-08-06T06:20:08.589Z,6180
2016-08-06T06:21:08.609Z,6720
2016-08-06T06:22:08.585Z,7076
2016-08-06T06:23:07.864Z,7416
2016-08-06T06:24:09.309Z,7868
2016-08-06T06:25:09.312Z,8436
2016-08-06T06:26:08.596Z,8596
2016-08-06T06:27:10.045Z,8588
2016-08-06T06:28:09.314Z,7744
2016-08-06T06:29:10.041Z,9508
2016-08-06T06:30:09.320Z,11628
2016-08-06T06:31:09.329Z,13164
2016-08-06T06:32:09.323Z,17084
2016-08-06T06:33:09.329Z,16864
2016-08-06T06:34:09.545Z,15100
2016-08-06T06:35:09.346Z,15572
2016-08-06T06:36:09.341Z,16112
2016-08-06T06:37:10.062Z,15296
2016-08-06T06:38:08.621Z,19008
2016-08-06T06:39:08.626Z,36736
2016-08-06T06:40:10.062Z,30336
2016-08-06T06:41:09.344Z,30208
2016-08-06T06:42:09.348Z,33952
2016-08-06T06:43:09.366Z,35296
2016-08-06T06:44:10.082Z,17984
2016-08-06T06:45:09.362Z,27520
2016-08-06T06:46:10.089Z,5780
2016-08-06T06:47:10.102Z,29536
2016-08-06T06:48:09.374Z,27712
2016-08-06T06:49:09.373Z,14476
2016-08-06T06:50:08.655Z,17624
2016-08-06T06:51:10.095Z,12400
2016-08-06T06:52:08.666Z,12592
2016-08-06T06:53:09.391Z,10524
2016-08-06T06:54:10.114Z,9516
2016-08-06T06:55:09.398Z,13204
2016-08-06T06:56:09.415Z,29824
2016-08-06T06:57:08.710Z,25920
2016-08-06T06:58:10.127Z,23488
2016-08-06T06:59:10.127Z,24736
2016-08-06T07:00:08.699Z,25248
2016-08-06T07:01:10.147Z,25056
2016-08-06T07:02:09.434Z,26944
2016-08-06T07:03:09.530Z,28448
2016-08-06T07:04:09.490Z,31552
2016-08-06T07:05:10.166Z,33280
2016-08-06T07:06:08.727Z,26752
2016-08-06T07:07:09.452Z,20160
2016-08-06T07:08:08.734Z,8504
2016-08-06T07:09:09.455Z,23296
2016-08-06T07:10:10.198Z,6384
2016-08-06T07:11:08.752Z,5924
2016-08-06T07:12:10.198Z,11008
2016-08-06T07:13:09.478Z,12444
2016-08-06T07:14:08.767Z,26208
2016-08-06T07:15:10.211Z,20416
2016-08-06T07:16:10.223Z,11844
2016-08-06T07:17:10.224Z,11316
2016-08-06T07:18:08.790Z,12380
2016-08-06T07:19:09.511Z,13436
2016-08-06T07:20:10.247Z,13264
2016-08-06T07:21:10.243Z,17568
2016-08-06T07:22:10.247Z,36704
2016-08-06T07:23:09.535Z,39584
2016-08-06T07:24:09.539Z,39168
2016-08-06T07:25:08.827Z,38848
2016-08-06T07:26:10.263Z,38240
2016-08-06T07:27:10.271Z,35232
2016-08-06T07:28:08.851Z,33632
2016-08-06T07:29:09.563Z,33248
2016-08-06T07:30:10.299Z,22304
2016-08-06T07:31:10.296Z,29152
2016-08-06T07:32:09.591Z,31424
2016-08-06T07:33:10.314Z,23712
2016-08-06T07:34:10.320Z,41152
2016-08-06T07:35:10.320Z,44672
2016-08-06T07:36:08.164Z,30304
2016-08-06T07:37:09.611Z,14164
2016-08-06T07:38:09.616Z,10840
2016-08-06T07:39:08.907Z,7672
2016-08-06T07:40:10.343Z,5580
2016-08-06T07:41:10.356Z,7144
2016-08-06T07:42:08.919Z,7656
2016-08-06T07:43:09.643Z,6636
2016-08-06T07:44:10.380Z,8364
2016-08-06T07:45:10.399Z,21440
2016-08-06T07:46:09.664Z,32928
2016-08-06T07:47:09.680Z,40352
2016-08-06T07:48:08.956Z,38560
2016-08-06T07:49:10.408Z,34176
2016-08-06T07:50:09.693Z,35136
2016-08-06T07:51:09.705Z,24800
2016-08-06T07:52:08.989Z,24320
2016-08-06T07:53:09.708Z,40352
2016-08-06T07:54:10.440Z,44704
2016-08-06T07:55:10.448Z,42400
2016-08-06T07:56:10.456Z,17808
2016-08-06T07:57:09.019Z,34784
2016-08-06T07:58:10.456Z,40992
2016-08-06T07:59:09.760Z,42112
2016-08-06T08:00:10.500Z,37440
2016-08-06T08:01:10.481Z,45728
2016-08-06T08:02:09.133Z,47584
2016-08-06T08:03:09.788Z,47520
2016-08-06T08:04:09.773Z,46496
2016-08-06T08:05:09.804Z,46784
2016-08-06T08:06:10.521Z,45952
2016-08-06T08:07:10.537Z,42240
2016-08-06T08:08:09.828Z,31456
2016-08-06T08:09:10.557Z,19360
2016-08-06T08:10:09.837Z,5344
2016-08-06T08:11:10.564Z,7572
2016-08-06T08:12:10.577Z,7476
2016-08-06T08:13:10.572Z,8368
2016-08-06T08:14:09.860Z,9064
2016-08-06T08:15:09.876Z,9320
2016-08-06T08:16:08.438Z,9516
2016-08-06T08:17:08.997Z,10532
2016-08-06T08:18:09.181Z,13464
2016-08-06T08:19:10.614Z,50080
2016-08-06T08:20:10.630Z,46112
2016-08-06T08:21:09.910Z,42944
2016-08-06T08:22:09.938Z,39072
2016-08-06T08:23:10.661Z,34112
2016-08-06T08:24:10.669Z,25600
2016-08-06T08:25:09.950Z,21632
2016-08-06T08:26:10.677Z,26112
2016-08-06T08:27:09.970Z,20512
2016-08-06T08:28:10.678Z,16208
2016-08-06T08:29:09.970Z,12752
2016-08-06T08:30:10.709Z,12220
2016-08-06T08:31:10.718Z,11828
2016-08-06T08:32:10.003Z,11548
2016-08-06T08:33:10.005Z,10960
2016-08-06T08:34:10.737Z,10700
2016-08-06T08:35:10.739Z,10372
2016-08-06T08:36:10.750Z,10172
2016-08-06T08:37:10.042Z,10424
2016-08-06T08:38:10.038Z,11400
2016-08-06T08:39:09.329Z,11172
2016-08-06T08:40:10.778Z,10296
2016-08-06T08:41:09.341Z,8884
2016-08-06T08:42:10.074Z,8880
2016-08-06T08:43:10.082Z,11008
2016-08-06T08:44:10.797Z,11844
2016-08-06T08:45:10.817Z,11388
2016-08-06T08:46:10.098Z,9640
2016-08-06T08:47:10.846Z,8372
2016-08-06T08:48:10.842Z,8104
2016-08-06T08:49:10.850Z,8352
2016-08-06T08:50:10.130Z,8784
2016-08-06T08:51:10.854Z,8672
2016-08-06T08:52:10.161Z,8672
2016-08-06T08:53:10.150Z,8676
2016-08-06T08:54:09.442Z,9052
2016-08-06T08:55:10.186Z,9900
2016-08-06T08:56:10.178Z,8756
2016-08-06T08:57:10.174Z,8540
2016-08-06T08:58:09.478Z,8036
2016-08-06T08:59:10.922Z,8208
2016-08-06T09:00:10.930Z,7760
2016-08-06T09:01:09.491Z,7784
2016-08-06T09:02:10.226Z,7356
2016-08-06T09:03:10.950Z,6880
2016-08-06T09:04:10.970Z,7896
2016-08-06T09:05:10.302Z,7804
2016-08-06T09:06:09.530Z,7964
2016-08-06T09:07:10.971Z,7388
2016-08-06T09:08:10.991Z,7560
2016-08-06T09:09:10.983Z,8040
2016-08-06T09:10:11.014Z,8100
2016-08-06T09:11:10.286Z,7648
2016-08-06T09:12:10.298Z,7440
2016-08-06T09:13:11.018Z,7036
2016-08-06T09:14:11.014Z,6912
2016-08-06T09:15:10.310Z,6852
2016-08-06T09:16:11.294Z,6876
2016-08-06T09:17:10.322Z,6824
2016-08-06T09:18:10.330Z,7068
2016-08-06T09:19:11.060Z,7232
2016-08-06T09:20:11.083Z,7364
2016-08-06T09:21:11.075Z,7388
2016-08-06T09:22:09.634Z,7040
2016-08-06T09:23:10.375Z,6536
2016-08-06T09:24:10.375Z,284
2016-08-06T09:25:10.383Z,280
2016-08-06T09:26:09.663Z,276
2016-08-06T09:27:09.663Z,260
2016-08-06T09:28:11.118Z,272
2016-08-06T09:29:08.954Z,272
2016-08-06T09:30:10.407Z,272
2016-08-06T09:31:11.131Z,248
2016-08-06T09:32:11.142Z,268
2016-08-06T09:33:11.139Z,256
2016-08-06T09:34:10.436Z,248
2016-08-06T09:35:11.151Z,184
2016-08-06T09:36:10.447Z,220
2016-08-06T09:37:10.451Z,276
2016-08-06T09:38:09.734Z,272
2016-08-06T09:39:09.748Z,268
2016-08-06T09:40:11.183Z,244
2016-08-06T09:41:11.199Z,232
2016-08-06T09:42:10.483Z,252
2016-08-06T09:43:10.483Z,248
2016-08-06T09:44:10.483Z,228
2016-08-06T09:45:11.212Z,220
2016-08-06T09:46:11.216Z,216
2016-08-06T09:47:10.504Z,232
2016-08-06T09:48:09.788Z,232
2016-08-06T09:49:11.230Z,224
2016-08-06T09:50:11.235Z,216
2016-08-06T09:51:10.535Z,208
2016-08-06T09:52:11.256Z,204
2016-08-06T09:53:09.811Z,208
2016-08-06T09:54:10.539Z,204
2016-08-06T09:55:11.256Z,196
2016-08-06T09:56:11.272Z,184
2016-08-06T09:57:10.556Z,180
2016-08-06T09:58:10.556Z,192
2016-08-06T09:59:11.279Z,192
2016-08-06T10:00:11.296Z,196
2016-08-06T10:01:09.844Z,184
2016-08-06T10:02:11.292Z,188
2016-08-06T10:03:11.308Z,180
2016-08-06T10:04:10.680Z,180
2016-08-06T10:05:10.580Z,184
2016-08-06T10:06:10.588Z,196
2016-08-06T10:07:11.308Z,196
2016-08-06T10:08:11.373Z,196
2016-08-06T10:09:09.888Z,192
2016-08-06T10:10:11.333Z,184
2016-08-06T10:11:09.901Z,196
2016-08-06T10:12:11.349Z,204
2016-08-06T10:13:10.636Z,204
2016-08-06T10:14:10.625Z,196
2016-08-06T10:15:11.348Z,188
2016-08-06T10:16:10.636Z,204
2016-08-06T10:17:11.362Z,204
2016-08-06T10:18:11.365Z,204
2016-08-06T10:19:11.362Z,196
2016-08-06T10:20:10.648Z,196
2016-08-06T10:21:09.928Z,192
2016-08-06T10:22:11.381Z,192
2016-08-06T10:23:11.390Z,192
2016-08-06T10:24:11.385Z,208
2016-08-06T10:25:10.665Z,200
2016-08-06T10:26:11.406Z,112
2016-08-06T10:27:11.401Z,84
2016-08-06T10:28:09.961Z,84
2016-08-06T10:29:11.425Z,160
2016-08-06T10:30:10.689Z,168
2016-08-06T10:31:10.701Z,184
2016-08-06T10:32:10.706Z,92
2016-08-06T10:33:11.429Z,84
2016-08-06T10:34:10.702Z,76
2016-08-06T10:35:11.434Z,76
2016-08-06T10:36:10.714Z,72
2016-08-06T10:37:11.433Z,72
2016-08-06T10:38:10.722Z,76
2016-08-06T10:39:11.454Z,80
2016-08-06T10:40:10.729Z,188
2016-08-06T10:41:10.730Z,196
2016-08-06T10:42:10.726Z,196
2016-08-06T10:43:10.738Z,196
2016-08-06T10:44:10.741Z,192
2016-08-06T10:45:11.461Z,180
2016-08-06T10:46:10.740Z,188
2016-08-06T10:47:10.753Z,200
2016-08-06T10:48:10.754Z,196
2016-08-06T10:49:10.762Z,148
2016-08-06T10:50:10.050Z,180
2016-08-06T10:51:10.038Z,116
2016-08-06T10:52:10.769Z,76
2016-08-06T10:53:10.050Z,72
2016-08-06T10:54:10.774Z,72
2016-08-06T10:55:10.062Z,72
2016-08-06T10:56:11.516Z,72
2016-08-06T10:57:11.510Z,72
2016-08-06T10:58:10.789Z,72
2016-08-06T10:59:11.505Z,72
2016-08-06T11:00:10.074Z,68
2016-08-06T11:01:10.077Z,72
2016-08-06T11:02:10.805Z,76
2016-08-06T11:03:10.798Z,84
2016-08-06T11:04:10.801Z,84
2016-08-06T11:05:10.806Z,204
2016-08-06T11:06:11.542Z,208
2016-08-06T11:07:10.093Z,188
2016-08-06T11:08:10.093Z,176
2016-08-06T11:09:10.830Z,168
2016-08-06T11:10:10.825Z,188
2016-08-06T11:11:10.838Z,200
2016-08-06T11:12:10.130Z,200
2016-08-06T11:13:10.845Z,196
2016-08-06T11:14:10.125Z,188
2016-08-06T11:15:11.561Z,168
2016-08-06T11:16:10.850Z,168
2016-08-06T11:17:11.566Z,184
2016-08-06T11:18:11.591Z,192
2016-08-06T11:19:10.858Z,196
2016-08-06T11:20:11.575Z,208
2016-08-06T11:21:11.590Z,204
2016-08-06T11:22:11.583Z,196
2016-08-06T11:23:11.582Z,192
2016-08-06T11:24:10.870Z,200
2016-08-06T11:25:10.882Z,200
2016-08-06T11:26:09.439Z,188
2016-08-06T11:27:11.607Z,196
2016-08-06T11:28:11.599Z,168
2016-08-06T11:29:11.606Z,92
2016-08-06T11:30:10.903Z,172
2016-08-06T11:31:11.606Z,84
2016-08-06T11:32:10.894Z,80
2016-08-06T11:33:10.894Z,92
2016-08-06T11:34:11.630Z,192
2016-08-06T11:35:10.903Z,200
2016-08-06T11:36:10.183Z,200
2016-08-06T11:37:10.908Z,200
2016-08-06T11:38:11.647Z,200
2016-08-06T11:39:11.642Z,112
2016-08-06T11:40:10.919Z,96
2016-08-06T11:41:10.918Z,208
2016-08-06T11:42:10.203Z,208
2016-08-06T11:43:10.927Z,124
2016-08-06T11:44:11.651Z,88
2016-08-06T11:45:10.947Z,84
2016-08-06T11:46:10.207Z,84
2016-08-06T11:47:10.938Z,96
2016-08-06T11:48:11.663Z,164
2016-08-06T11:49:11.672Z,164
2016-08-06T11:50:11.684Z,88
2016-08-06T11:51:10.943Z,128
2016-08-06T11:52:10.243Z,100
2016-08-06T11:53:10.951Z,172
2016-08-06T11:54:09.519Z,176
2016-08-06T11:55:10.243Z,176
2016-08-06T11:56:10.252Z,168
2016-08-06T11:57:10.252Z,156
2016-08-06T11:58:11.688Z,160
2016-08-06T11:59:10.964Z,160
2016-08-06T12:00:10.980Z,168
2016-08-06T12:01:10.983Z,172
2016-08-06T12:02:10.976Z,176
2016-08-06T12:03:10.528Z,180
2016-08-06T12:04:11.700Z,168
2016-08-06T12:05:11.723Z,168
2016-08-06T12:06:10.276Z,168
2016-08-06T12:07:11.719Z,168
2016-08-06T12:08:11.725Z,172
2016-08-06T12:09:11.005Z,168
2016-08-06T12:10:11.720Z,160
2016-08-06T12:11:11.001Z,164
2016-08-06T12:12:11.740Z,160
2016-08-06T12:13:11.013Z,168
2016-08-06T12:14:11.745Z,172
2016-08-06T12:15:11.729Z,176
2016-08-06T12:16:11.020Z,168
2016-08-06T12:17:11.748Z,172
2016-08-06T12:18:10.145Z,172
2016-08-06T12:19:11.028Z,164
2016-08-06T12:20:11.024Z,168
2016-08-06T12:21:11.040Z,164
2016-08-06T12:22:11.033Z,156
2016-08-06T12:23:11.772Z,160
2016-08-06T12:24:11.052Z,164
2016-08-06T12:25:11.776Z,164
2016-08-06T12:26:11.764Z,164
2016-08-06T12:27:11.764Z,168
2016-08-06T12:28:11.061Z,164
2016-08-06T12:29:11.774Z,164
2016-08-06T12:30:11.064Z,156
2016-08-06T12:31:10.341Z,152
2016-08-06T12:32:10.365Z,152
2016-08-06T12:33:09.968Z,152
2016-08-06T12:34:11.064Z,152
2016-08-06T12:35:11.069Z,152
2016-08-06T12:36:11.088Z,152
2016-08-06T12:37:11.089Z,152
2016-08-06T12:38:11.805Z,152
2016-08-06T12:39:11.089Z,148
2016-08-06T12:40:10.361Z,148
2016-08-06T12:41:11.100Z,136
2016-08-06T12:42:11.817Z,136
2016-08-06T12:43:10.365Z,132
2016-08-06T12:44:09.657Z,136
2016-08-06T12:45:11.817Z,140
2016-08-06T12:46:11.108Z,140
2016-08-06T12:47:11.821Z,144
2016-08-06T12:49:11.833Z,124
2016-08-06T12:50:10.390Z,128
2016-08-06T12:51:11.109Z,136
2016-08-06T12:52:11.113Z,108
2016-08-06T12:53:11.842Z,112
2016-08-06T12:54:11.137Z,132
2016-08-06T12:55:11.130Z,132
2016-08-06T12:56:11.858Z,136
2016-08-06T12:57:11.853Z,132
2016-08-06T12:58:11.129Z,132
2016-08-06T12:59:11.857Z,132
2016-08-06T13:00:10.414Z,132
2016-08-06T13:01:11.141Z,132
2016-08-06T13:02:10.422Z,132
2016-08-06T13:03:10.440Z,132
2016-08-06T13:04:10.593Z,132
2016-08-06T13:05:11.148Z,132
2016-08-06T13:06:11.877Z,124
2016-08-06T13:07:11.878Z,124
2016-08-06T13:08:11.874Z,128
2016-08-06T13:09:11.161Z,128
2016-08-06T13:10:11.154Z,124
2016-08-06T13:11:11.890Z,120
2016-08-06T13:12:11.165Z,124
2016-08-06T13:13:11.905Z,120
2016-08-06T13:14:11.178Z,124
2016-08-06T13:15:11.901Z,120
2016-08-06T13:16:11.174Z,120
2016-08-06T13:17:11.905Z,120
2016-08-06T13:18:10.470Z,116
2016-08-06T13:19:10.474Z,112
2016-08-06T13:20:11.190Z,112
2016-08-06T13:21:11.197Z,112
2016-08-06T13:22:10.474Z,108
2016-08-06T13:23:11.194Z,100
2016-08-06T13:24:11.918Z,104
2016-08-06T13:25:11.931Z,108
2016-08-06T13:26:11.927Z,108
2016-08-06T13:27:10.491Z,112
2016-08-06T13:28:11.934Z,108
2016-08-06T13:29:11.217Z,108
2016-08-06T13:30:11.209Z,108
2016-08-06T13:31:10.510Z,104
2016-08-06T13:32:11.226Z,100
2016-08-06T13:33:11.219Z,100
2016-08-06T13:34:11.958Z,100
2016-08-06T13:35:11.223Z,96
2016-08-06T13:36:11.223Z,96
2016-08-06T13:37:10.514Z,96
2016-08-06T13:38:11.951Z,96
2016-08-06T13:39:11.950Z,92
2016-08-06T13:40:10.520Z,92
2016-08-06T13:41:10.527Z,92
2016-08-06T13:42:11.263Z,92
2016-08-06T13:43:10.526Z,92
2016-08-06T13:44:11.254Z,92
2016-08-06T13:45:11.255Z,92
2016-08-06T13:46:11.274Z,92
2016-08-06T13:47:11.260Z,88
2016-08-06T13:48:10.538Z,88
2016-08-06T13:49:11.983Z,88
2016-08-06T13:50:10.547Z,84
2016-08-06T13:51:11.271Z,84
2016-08-06T13:52:11.983Z,88
2016-08-06T13:53:10.552Z,88